Springstead, Wisconsin
Current Conditions -  °F | °C
As of 4:15 PM on Friday 24 Oct 2014 (Local Time) from KPBH Reporting Station
Overcast Overcast  
Wind Chill: 59°   Ceiling: 2400
Heat Index: 59°   Visibility: 10mi
Dew Point: 48°   Wind: 13mph
Humidity: 67%   Direction: 230°SW
Pressure: 29.85"   Gusts: 21mph
Location:  45.9599°N, 90.2362°W
Report Text: KPBH 242115Z AUTO 23011G18KT 10SM OVC024 15/09 A2985 RMK AO2 T01510090
Loading
Personal Weather Stations






























Interactive Weather Map
Tropical Storm Tracking
New forecast layout! Learn more

10-Day Weather Forecast

Advertisements
Track Severe Weather on mobile